Time;durP1;ratioP1;P1;durP2;ratioP2;P2;SDS_P1;SDS_P2;PMS_P1;PMS_P2;Temp;Humidity;BMP_temperature;BMP_pressure;BME280_temperature;BME280_humidity;BME280_pressure;Samples;Min_cycle;Max_cycle;Signal;HPM_P1;HPM_P2
2024/02/03 00:00:46;;;;;;;9.27;8.07;;;9.00;1.00;;;;;;5109471;27;20470;-72
2024/02/03 00:03:14;;;;;;;10.17;8.07;;;9.00;1.00;;;;;;5107727;27;21248;-71
2024/02/03 00:05:43;;;;;;;9.90;8.57;;;9.00;1.00;;;;;;5106857;27;20473;-73
2024/02/03 00:08:10;;;;;;;9.10;7.77;;;9.00;1.00;;;;;;5111122;27;20525;-71
2024/02/03 00:10:37;;;;;;;9.70;8.70;;;9.00;1.00;;;;;;5105454;27;20465;-70
2024/02/03 00:13:04;;;;;;;9.47;8.50;;;9.00;1.00;;;;;;5103728;27;20465;-71
2024/02/03 00:15:31;;;;;;;9.93;8.43;;;9.10;1.00;;;;;;5109330;27;20474;-72
2024/02/03 00:18:00;;;;;;;9.67;8.50;;;9.00;1.00;;;;;;5106829;27;20559;-72
2024/02/03 00:20:27;;;;;;;12.43;9.20;;;9.00;1.00;;;;;;5106994;27;20473;-73
2024/02/03 00:22:54;;;;;;;9.93;8.43;;;9.00;1.00;;;;;;5102570;27;20452;-72
2024/02/03 00:25:24;;;;;;;10.43;8.50;;;9.00;1.00;;;;;;5109674;27;20472;-74
2024/02/03 00:27:51;;;;;;;8.97;7.83;;;9.00;1.00;;;;;;5104718;27;20467;-71
2024/02/03 00:30:18;;;;;;;9.03;8.07;;;9.00;1.00;;;;;;5107187;27;20469;-71
2024/02/03 00:32:45;;;;;;;8.50;7.70;;;9.00;1.00;;;;;;5109703;27;20449;-72
2024/02/03 00:35:14;;;;;;;9.80;8.80;;;9.00;1.00;;;;;;5102860;27;20459;-72
2024/02/03 00:37:41;;;;;;;10.30;8.97;;;9.00;1.00;;;;;;5113322;27;20955;-72
2024/02/03 00:40:10;;;;;;;10.43;9.07;;;9.00;1.00;;;;;;5106561;27;20551;-70
2024/02/03 00:42:36;;;;;;;10.10;7.97;;;9.00;1.00;;;;;;5114846;27;20458;-71
2024/02/03 00:45:03;;;;;;;10.13;9.10;;;9.00;1.00;;;;;;5115538;27;20457;-71
2024/02/03 00:47:30;;;;;;;10.20;9.17;;;9.00;1.00;;;;;;5109173;27;20553;-72
2024/02/03 00:49:57;;;;;;;10.90;9.27;;;9.00;1.00;;;;;;5114756;27;20509;-70
2024/02/03 00:52:26;;;;;;;9.97;7.80;;;9.00;1.00;;;;;;5114477;27;20469;-72
2024/02/03 00:54:53;;;;;;;10.30;8.73;;;9.00;1.00;;;;;;5113410;27;20454;-71
2024/02/03 00:57:20;;;;;;;9.47;8.47;;;9.00;1.00;;;;;;5112692;27;20453;-80
2024/02/03 00:59:47;;;;;;;10.43;8.73;;;9.00;1.00;;;;;;5112812;27;20460;-75
2024/02/03 01:02:14;;;;;;;10.13;8.50;;;9.10;1.00;;;;;;5114739;27;20422;-78
2024/02/03 01:04:42;;;;;;;9.70;8.27;;;9.10;1.00;;;;;;5112939;27;20458;-75
2024/02/03 01:07:09;;;;;;;8.70;7.13;;;9.10;1.00;;;;;;5113492;27;20442;-76
2024/02/03 01:09:37;;;;;;;12.17;8.80;;;9.10;1.00;;;;;;5107623;27;20478;-75
2024/02/03 01:12:05;;;;;;;8.03;7.23;;;9.10;1.00;;;;;;5094193;28;20460;-76
2024/02/03 01:14:32;;;;;;;9.53;8.03;;;9.10;1.00;;;;;;5095107;28;20518;-76
2024/02/03 01:16:59;;;;;;;9.10;7.73;;;9.10;1.00;;;;;;5094848;28;20470;-76
2024/02/03 01:19:26;;;;;;;9.60;7.70;;;9.20;1.00;;;;;;5096902;28;20480;-76
2024/02/03 01:21:53;;;;;;;9.90;8.10;;;9.20;1.00;;;;;;5093665;28;21657;-76
2024/02/03 01:24:21;;;;;;;10.50;8.03;;;9.20;1.00;;;;;;5093805;28;20477;-75
2024/02/03 01:26:49;;;;;;;10.40;8.07;;;9.30;1.00;;;;;;5095390;28;20601;-74
2024/02/03 01:29:20;;;;;;;10.07;8.40;;;9.30;1.00;;;;;;5094359;28;20592;-74
2024/02/03 01:31:47;;;;;;;9.13;7.70;;;9.30;1.00;;;;;;5095123;28;20469;-75
2024/02/03 01:34:14;;;;;;;9.20;8.30;;;9.40;1.00;;;;;;5092507;28;20539;-74
2024/02/03 01:36:41;;;;;;;8.40;7.40;;;9.40;1.00;;;;;;5098901;28;20463;-75
2024/02/03 01:39:10;;;;;;;10.33;8.73;;;9.40;1.00;;;;;;5095405;28;20491;-75
2024/02/03 01:41:37;;;;;;;10.40;8.70;;;9.40;1.00;;;;;;5094467;28;20461;-75
2024/02/03 01:44:06;;;;;;;9.63;7.20;;;9.40;1.00;;;;;;5094032;28;20464;-74
2024/02/03 01:46:33;;;;;;;8.70;7.20;;;9.50;1.00;;;;;;5095188;28;20425;-75
2024/02/03 01:49:01;;;;;;;9.40;7.93;;;9.50;1.00;;;;;;5091257;28;21005;-75
2024/02/03 01:51:29;;;;;;;10.37;8.30;;;9.50;1.00;;;;;;5093741;28;20465;-76
2024/02/03 01:53:56;;;;;;;7.60;6.80;;;9.60;1.00;;;;;;5091158;28;20454;-75
2024/02/03 01:56:25;;;;;;;8.67;7.60;;;9.60;1.00;;;;;;5092787;28;20528;-75
2024/02/03 01:58:52;;;;;;;10.27;8.33;;;9.60;1.00;;;;;;5088831;28;20616;-77
2024/02/03 02:01:23;;;;;;;9.00;7.67;;;9.60;1.00;;;;;;5093017;28;20461;-75
2024/02/03 02:03:50;;;;;;;8.63;7.63;;;9.60;1.00;;;;;;5090973;28;21277;-75
2024/02/03 02:06:17;;;;;;;8.93;7.87;;;9.70;1.00;;;;;;5093249;28;21192;-75
2024/02/03 02:08:44;;;;;;;9.03;8.03;;;9.70;1.00;;;;;;5091313;28;20482;-75
2024/02/03 02:11:13;;;;;;;9.37;8.37;;;9.60;1.00;;;;;;5104575;27;20954;-74
2024/02/03 02:13:41;;;;;;;8.53;7.60;;;9.70;1.00;;;;;;5114167;27;21055;-75
2024/02/03 02:16:08;;;;;;;8.83;7.77;;;9.70;1.00;;;;;;5110864;27;20458;-74
2024/02/03 02:18:37;;;;;;;9.97;8.37;;;9.70;1.00;;;;;;5112044;27;21010;-75
2024/02/03 02:21:06;;;;;;;8.80;7.23;;;9.80;1.00;;;;;;5110987;27;20466;-74
2024/02/03 02:23:33;;;;;;;8.27;7.10;;;9.80;1.00;;;;;;5109966;27;20458;-75
2024/02/03 02:26:00;;;;;;;9.80;8.40;;;9.80;1.00;;;;;;5112428;27;20465;-74
2024/02/03 02:28:27;;;;;;;8.40;7.13;;;9.90;1.00;;;;;;5113680;27;20486;-75
2024/02/03 02:30:54;;;;;;;8.13;7.00;;;9.80;1.00;;;;;;5113133;27;20814;-75
2024/02/03 02:33:21;;;;;;;8.73;7.83;;;9.90;1.00;;;;;;5113828;27;20528;-75
2024/02/03 02:35:50;;;;;;;8.30;7.43;;;9.90;1.00;;;;;;5111624;27;20458;-75
2024/02/03 02:38:19;;;;;;;7.27;6.57;;;9.90;1.00;;;;;;5111145;27;20458;-75
2024/02/03 02:40:46;;;;;;;8.80;7.90;;;9.90;1.00;;;;;;5110849;27;20516;-75
2024/02/03 02:43:14;;;;;;;8.93;8.03;;;10.00;1.00;;;;;;5113117;27;20511;-74
2024/02/03 02:45:41;;;;;;;9.10;8.10;;;10.00;1.00;;;;;;5112249;27;20909;-76
2024/02/03 02:48:08;;;;;;;9.33;7.70;;;10.00;1.00;;;;;;5108457;27;20477;-74
2024/02/03 02:50:35;;;;;;;8.80;7.90;;;10.00;1.00;;;;;;5110721;27;20446;-75
2024/02/03 02:53:02;;;;;;;9.40;8.10;;;10.00;1.00;;;;;;5107988;27;20475;-76
2024/02/03 02:55:30;;;;;;;8.60;7.60;;;10.00;1.00;;;;;;5108101;27;20542;-76
2024/02/03 02:58:00;;;;;;;9.17;8.27;;;10.10;1.00;;;;;;5108578;27;20492;-73
2024/02/03 03:00:27;;;;;;;11.57;8.10;;;10.10;1.00;;;;;;5109155;27;20823;-74
2024/02/03 03:02:54;;;;;;;8.97;8.07;;;10.10;1.00;;;;;;5108067;27;21310;-74
2024/02/03 03:05:21;;;;;;;8.27;7.43;;;10.10;1.00;;;;;;5108365;27;20478;-75
2024/02/03 03:07:48;;;;;;;9.83;8.80;;;10.10;1.00;;;;;;5109879;27;20591;-74
2024/02/03 03:10:15;;;;;;;9.73;8.73;;;10.20;1.00;;;;;;5106618;27;20453;-75
2024/02/03 03:12:44;;;;;;;11.20;10.00;;;10.20;1.00;;;;;;5110177;27;20975;-74
2024/02/03 03:15:11;;;;;;;10.50;8.40;;;10.20;1.00;;;;;;5106242;27;21272;-75
2024/02/03 03:17:38;;;;;;;8.97;8.07;;;10.20;1.00;;;;;;5108901;27;20489;-75
2024/02/03 03:20:07;;;;;;;8.80;7.90;;;10.20;1.00;;;;;;5106788;27;20453;-71
2024/02/03 03:22:34;;;;;;;10.83;9.73;;;10.20;1.00;;;;;;5108769;27;20482;-70
2024/02/03 03:25:01;;;;;;;9.73;8.77;;;10.30;1.00;;;;;;5105813;27;20548;-71
2024/02/03 03:27:28;;;;;;;10.27;8.50;;;10.30;1.00;;;;;;5105348;27;20473;-70
2024/02/03 03:29:56;;;;;;;10.10;9.10;;;10.20;1.00;;;;;;5104927;27;20469;-72
2024/02/03 03:32:23;;;;;;;11.70;9.77;;;10.30;1.00;;;;;;5107115;27;20528;-71
2024/02/03 03:34:50;;;;;;;11.60;10.17;;;10.30;1.00;;;;;;5107107;27;20465;-73
2024/02/03 03:37:17;;;;;;;16.33;11.30;;;10.30;1.00;;;;;;5106257;27;20555;-71
2024/02/03 03:39:45;;;;;;;12.07;10.13;;;10.30;1.00;;;;;;5106171;27;20462;-72
2024/02/03 03:42:12;;;;;;;10.57;9.33;;;10.30;1.00;;;;;;5105568;27;20438;-71
2024/02/03 03:44:39;;;;;;;10.40;9.30;;;10.30;1.00;;;;;;5109469;27;20977;-70
2024/02/03 03:47:08;;;;;;;12.17;9.80;;;10.30;1.00;;;;;;5107798;27;20468;-72
2024/02/03 03:49:35;;;;;;;11.53;10.43;;;10.30;1.00;;;;;;5103956;27;20570;-75
2024/02/03 03:52:02;;;;;;;12.17;10.50;;;10.30;1.00;;;;;;5107562;27;20585;-73
2024/02/03 03:54:29;;;;;;;11.10;9.60;;;10.30;1.00;;;;;;5106980;27;20454;-72
2024/02/03 03:56:56;;;;;;;12.73;10.00;;;10.30;1.00;;;;;;5085358;27;20425;-72
2024/02/03 03:59:23;;;;;;;12.10;10.17;;;10.30;1.00;;;;;;5103521;27;21023;-71
2024/02/03 04:01:50;;;;;;;14.50;10.97;;;10.30;1.00;;;;;;5106472;27;20529;-73
2024/02/03 04:04:20;;;;;;;12.87;10.60;;;10.30;1.00;;;;;;5106365;27;20495;-71
2024/02/03 04:06:46;;;;;;;11.97;10.60;;;10.20;1.00;;;;;;5107289;27;20980;-71
2024/02/03 04:09:13;;;;;;;12.03;10.73;;;10.10;1.00;;;;;;5106168;27;20442;-70
2024/02/03 04:11:40;;;;;;;13.30;10.80;;;10.20;1.00;;;;;;5106891;27;20646;-71
2024/02/03 04:14:08;;;;;;;12.77;11.30;;;10.20;1.00;;;;;;5107377;27;20552;-71
2024/02/03 04:16:35;;;;;;;10.67;9.57;;;10.20;1.00;;;;;;5105995;27;20966;-71
2024/02/03 04:19:02;;;;;;;11.00;9.80;;;10.20;1.00;;;;;;5110482;27;21086;-71
2024/02/03 04:21:31;;;;;;;12.23;10.93;;;10.20;1.00;;;;;;5105397;27;21047;-71
2024/02/03 04:23:58;;;;;;;14.37;11.63;;;10.20;1.00;;;;;;5102906;27;20557;-71
2024/02/03 04:26:27;;;;;;;12.17;10.37;;;10.20;1.00;;;;;;5108479;27;22286;-71
2024/02/03 04:28:54;;;;;;;12.73;11.43;;;10.20;1.00;;;;;;5104392;27;20484;-70
2024/02/03 04:31:21;;;;;;;13.10;11.50;;;10.30;1.00;;;;;;5109296;27;20485;-70
2024/02/03 04:33:48;;;;;;;12.43;10.67;;;10.30;1.00;;;;;;5106164;27;20461;-70
2024/02/03 04:36:15;;;;;;;11.87;10.53;;;10.30;1.00;;;;;;5109310;27;20458;-73
2024/02/03 04:38:44;;;;;;;10.30;9.27;;;10.30;1.00;;;;;;5108327;27;20545;-70
2024/02/03 04:41:23;;;;;;;11.53;10.33;;;10.40;1.00;;;;;;5104961;27;20482;-72
2024/02/03 04:43:50;;;;;;;12.10;10.77;;;10.40;1.00;;;;;;5107577;27;20489;-71
2024/02/03 04:46:18;;;;;;;12.20;10.90;;;10.40;1.00;;;;;;5108099;27;20501;-72
2024/02/03 04:48:45;;;;;;;12.67;10.23;;;10.40;1.00;;;;;;5103630;27;20457;-74
2024/02/03 04:51:12;;;;;;;11.63;9.90;;;10.50;1.00;;;;;;5100021;27;20538;-71
2024/02/03 04:53:40;;;;;;;12.20;10.10;;;10.60;1.00;;;;;;5099594;27;20609;-70
2024/02/03 04:56:08;;;;;;;10.53;9.53;;;10.60;1.00;;;;;;5109062;27;20488;-70
2024/02/03 04:58:35;;;;;;;10.80;9.70;;;10.60;1.00;;;;;;5101410;27;20504;-71
2024/02/03 05:01:04;;;;;;;10.47;9.37;;;10.60;1.00;;;;;;5107085;27;20493;-70
2024/02/03 05:03:31;;;;;;;10.37;9.23;;;10.60;1.00;;;;;;5101435;27;20549;-71
2024/02/03 05:06:03;;;;;;;9.47;8.43;;;10.60;1.00;;;;;;5104592;27;20568;-71
2024/02/03 05:08:30;;;;;;;11.30;10.20;;;10.70;1.00;;;;;;5108041;27;20477;-70
2024/02/03 05:10:57;;;;;;;11.07;9.07;;;10.70;1.00;;;;;;5103256;27;20485;-70
2024/02/03 05:13:26;;;;;;;10.73;9.60;;;10.70;1.00;;;;;;5104075;27;21119;-70
2024/02/03 05:15:53;;;;;;;11.30;10.07;;;10.70;1.00;;;;;;5106944;27;20470;-72
2024/02/03 05:18:21;;;;;;;10.27;9.27;;;10.70;1.00;;;;;;5108791;27;20850;-71
2024/02/03 05:20:48;;;;;;;9.80;8.70;;;10.70;1.00;;;;;;5106518;27;20498;-71
2024/02/03 05:23:15;;;;;;;10.23;9.13;;;10.80;1.00;;;;;;5107150;27;20482;-70
2024/02/03 05:25:42;;;;;;;9.27;7.93;;;10.80;1.00;;;;;;5104981;27;20549;-71
2024/02/03 05:28:09;;;;;;;9.43;8.13;;;10.80;1.00;;;;;;5105301;27;20445;-73
2024/02/03 05:30:37;;;;;;;9.80;8.23;;;10.80;1.00;;;;;;5109024;27;21032;-72
2024/02/03 05:33:07;;;;;;;9.20;8.30;;;10.80;1.00;;;;;;5107254;27;20458;-69
2024/02/03 05:35:34;;;;;;;9.43;8.40;;;10.80;1.00;;;;;;5109007;27;20660;-71
2024/02/03 05:38:01;;;;;;;10.03;9.07;;;10.70;1.00;;;;;;5096749;27;21093;-73
2024/02/03 05:40:28;;;;;;;9.37;8.47;;;10.80;1.00;;;;;;5108099;27;20477;-78
2024/02/03 05:42:57;;;;;;;9.67;8.07;;;10.80;1.00;;;;;;5110452;27;20862;-72
2024/02/03 05:45:24;;;;;;;9.07;8.17;;;10.80;1.00;;;;;;5105062;27;20477;-72
2024/02/03 05:47:53;;;;;;;11.20;8.50;;;10.80;1.00;;;;;;5109716;27;21644;-71
2024/02/03 05:50:20;;;;;;;9.23;8.17;;;10.70;1.00;;;;;;5110466;27;20457;-72
2024/02/03 05:52:46;;;;;;;9.47;8.33;;;10.80;1.00;;;;;;5107840;27;20451;-71
2024/02/03 05:55:13;;;;;;;9.00;7.73;;;10.70;1.00;;;;;;5105870;27;20522;-73
2024/02/03 05:57:51;;;;;;;10.60;8.10;;;10.70;1.00;;;;;;5109776;27;20977;-71
2024/02/03 06:00:18;;;;;;;11.10;8.33;;;10.70;1.00;;;;;;5110122;27;20524;-71
2024/02/03 06:02:46;;;;;;;9.00;7.50;;;10.70;1.00;;;;;;5109211;27;20446;-71
2024/02/03 06:05:15;;;;;;;8.43;7.57;;;10.80;1.00;;;;;;5105811;27;20609;-70
2024/02/03 06:07:43;;;;;;;7.40;6.60;;;10.70;1.00;;;;;;5109335;27;20469;-71
2024/02/03 06:10:10;;;;;;;7.63;6.87;;;10.70;1.00;;;;;;5104475;27;20598;-71
2024/02/03 06:12:37;;;;;;;8.60;7.70;;;10.70;1.00;;;;;;5106638;27;20533;-70
2024/02/03 06:15:04;;;;;;;7.47;6.83;;;10.80;1.00;;;;;;5108239;27;20488;-71
2024/02/03 06:17:31;;;;;;;8.90;8.00;;;10.80;1.00;;;;;;5112253;27;20449;-72
2024/02/03 06:19:58;;;;;;;7.80;7.00;;;10.80;1.00;;;;;;5106184;27;20557;-74
2024/02/03 06:22:26;;;;;;;7.73;6.93;;;10.80;1.00;;;;;;5104958;27;20575;-74
2024/02/03 06:24:53;;;;;;;9.23;7.07;;;10.80;1.00;;;;;;5104838;27;20629;-74
2024/02/03 06:27:20;;;;;;;8.00;7.20;;;10.70;1.00;;;;;;5108778;27;20458;-76
2024/02/03 06:29:47;;;;;;;9.23;6.90;;;10.70;1.00;;;;;;5108597;27;20503;-76
2024/02/03 06:32:14;;;;;;;8.57;7.30;;;10.70;1.00;;;;;;5109737;27;20496;-75
2024/02/03 06:34:41;;;;;;;8.90;7.33;;;10.80;1.00;;;;;;5109364;27;20552;-75
2024/02/03 06:37:08;;;;;;;6.87;6.13;;;10.70;1.00;;;;;;5107990;27;20454;-76
2024/02/03 06:39:36;;;;;;;10.33;7.00;;;10.70;1.00;;;;;;5103673;27;20495;-75
2024/02/03 06:42:04;;;;;;;6.93;6.23;;;10.70;1.00;;;;;;5105945;27;20533;-76
2024/02/03 06:44:32;;;;;;;6.47;5.80;;;10.70;1.00;;;;;;5108668;27;20466;-76
2024/02/03 06:46:58;;;;;;;8.43;6.73;;;10.60;1.00;;;;;;5108855;27;20479;-75
2024/02/03 06:49:25;;;;;;;7.43;6.70;;;10.60;1.00;;;;;;5105198;27;20940;-76
2024/02/03 06:51:52;;;;;;;7.63;6.47;;;10.60;1.00;;;;;;5104839;27;20414;-74
2024/02/03 06:54:19;;;;;;;7.60;6.80;;;10.60;1.00;;;;;;5106310;27;20503;-76
2024/02/03 06:56:49;;;;;;;6.80;6.13;;;10.60;1.00;;;;;;5105914;27;21034;-75
2024/02/03 06:59:16;;;;;;;7.93;6.40;;;10.60;1.00;;;;;;5106718;27;20462;-73
2024/02/03 07:01:42;;;;;;;6.90;6.30;;;10.60;1.00;;;;;;5102429;27;20560;-75
2024/02/03 07:04:10;;;;;;;8.27;6.33;;;10.70;1.00;;;;;;5083729;27;21008;-76
2024/02/03 07:06:37;;;;;;;7.33;6.60;;;10.70;1.00;;;;;;5103279;27;20424;-76
2024/02/03 07:09:05;;;;;;;6.77;6.17;;;10.70;1.00;;;;;;5107335;27;20498;-75
2024/02/03 07:11:32;;;;;;;8.67;7.50;;;10.70;1.00;;;;;;5105681;27;20511;-74
2024/02/03 07:14:01;;;;;;;7.70;6.70;;;10.70;1.00;;;;;;5106098;27;21339;-76
2024/02/03 07:16:28;;;;;;;8.40;7.40;;;10.70;1.00;;;;;;5106438;27;21027;-75
2024/02/03 07:18:55;;;;;;;7.50;6.70;;;10.60;1.00;;;;;;5103910;27;20473;-77
2024/02/03 07:21:22;;;;;;;7.90;7.10;;;10.60;1.00;;;;;;5106414;27;20641;-76
2024/02/03 07:23:49;;;;;;;8.10;6.67;;;10.70;1.00;;;;;;5102926;27;20544;-76
2024/02/03 07:26:17;;;;;;;8.13;7.07;;;10.70;1.00;;;;;;5104208;27;20458;-75
2024/02/03 07:28:47;;;;;;;8.20;7.00;;;10.70;1.00;;;;;;5105239;27;20557;-75
2024/02/03 07:31:25;;;;;;;8.43;7.50;;;10.70;1.00;;;;;;5104160;27;20450;-71
2024/02/03 07:33:52;;;;;;;9.30;7.67;;;10.70;1.00;;;;;;5105113;27;20566;-74
2024/02/03 07:36:19;;;;;;;7.80;7.00;;;10.70;1.00;;;;;;5086480;28;20450;-71
2024/02/03 07:38:46;;;;;;;9.47;7.20;;;10.70;1.00;;;;;;5100526;27;20556;-72
2024/02/03 07:41:14;;;;;;;7.60;6.80;;;10.70;1.00;;;;;;5103371;27;20570;-72
2024/02/03 07:43:41;;;;;;;8.53;7.30;;;10.60;1.00;;;;;;5104444;27;20692;-72
2024/02/03 07:46:08;;;;;;;8.37;7.40;;;10.70;1.00;;;;;;5105848;27;20536;-72
2024/02/03 07:48:37;;;;;;;9.23;7.50;;;10.70;1.00;;;;;;5101965;27;20474;-72
2024/02/03 07:51:04;;;;;;;8.00;7.17;;;10.70;1.00;;;;;;5100304;27;21260;-74
2024/02/03 07:53:31;;;;;;;9.20;7.90;;;10.70;1.00;;;;;;5106141;27;20515;-72
2024/02/03 07:55:58;;;;;;;11.77;8.83;;;10.60;1.00;;;;;;5101240;27;20482;-71
2024/02/03 07:58:25;;;;;;;9.23;8.00;;;10.70;1.00;;;;;;5104965;27;20504;-72
2024/02/03 08:00:55;;;;;;;8.67;7.43;;;10.70;1.00;;;;;;5099809;27;21127;-72
2024/02/03 08:03:22;;;;;;;7.87;7.10;;;10.70;1.00;;;;;;5104286;27;20472;-70
2024/02/03 08:05:50;;;;;;;8.40;7.53;;;10.60;1.00;;;;;;5102423;27;20461;-72
2024/02/03 08:08:17;;;;;;;9.37;8.20;;;10.60;1.00;;;;;;5105605;27;20448;-72
2024/02/03 08:10:44;;;;;;;8.60;7.70;;;10.60;1.00;;;;;;5108213;27;21396;-71
2024/02/03 08:13:11;;;;;;;9.23;7.67;;;10.60;1.00;;;;;;5108075;27;20469;-73
2024/02/03 08:15:38;;;;;;;8.20;7.37;;;10.50;1.00;;;;;;5108083;27;20449;-73
2024/02/03 08:18:05;;;;;;;9.47;7.40;;;10.50;1.00;;;;;;5107952;27;20511;-73
2024/02/03 08:20:32;;;;;;;9.50;7.00;;;10.50;1.00;;;;;;5107679;27;20465;-72
2024/02/03 08:23:00;;;;;;;8.53;7.67;;;10.50;1.00;;;;;;5107203;27;20468;-72
2024/02/03 08:25:28;;;;;;;8.23;7.03;;;10.50;1.00;;;;;;5102960;27;20537;-72
2024/02/03 08:27:55;;;;;;;7.73;6.93;;;10.50;1.00;;;;;;5108400;27;20535;-74
2024/02/03 08:30:23;;;;;;;7.87;7.07;;;10.50;1.00;;;;;;5107284;27;20468;-74
2024/02/03 08:32:53;;;;;;;7.07;5.80;;;10.60;1.00;;;;;;5108196;27;20531;-73
2024/02/03 08:35:20;;;;;;;7.90;6.63;;;10.50;1.00;;;;;;5108887;27;20456;-71
2024/02/03 08:37:47;;;;;;;8.00;7.20;;;10.50;1.00;;;;;;5102342;27;20904;-71
2024/02/03 08:40:18;;;;;;;7.30;6.60;;;10.50;1.00;;;;;;5103406;27;20451;-72
2024/02/03 08:42:45;;;;;;;8.30;6.77;;;10.50;1.00;;;;;;5105197;27;21293;-76
2024/02/03 08:45:12;;;;;;;8.60;7.50;;;10.50;1.00;;;;;;5106779;27;20549;-74
2024/02/03 08:47:39;;;;;;;6.70;5.50;;;10.60;1.00;;;;;;5105280;27;20887;-75
2024/02/03 08:50:07;;;;;;;8.60;7.80;;;10.70;1.00;;;;;;5102994;27;20462;-74
2024/02/03 08:52:34;;;;;;;8.27;7.23;;;10.70;1.00;;;;;;5106978;27;20845;-75
2024/02/03 08:55:01;;;;;;;7.47;6.77;;;10.80;1.00;;;;;;5105642;27;20961;-75
2024/02/03 08:57:29;;;;;;;7.50;6.37;;;10.90;1.00;;;;;;5100120;27;20559;-76
2024/02/03 08:59:56;;;;;;;7.40;6.70;;;10.90;1.00;;;;;;5105145;27;20473;-75
2024/02/03 09:02:27;;;;;;;8.33;6.30;;;10.90;1.00;;;;;;5103044;27;20498;-75
2024/02/03 09:04:56;;;;;;;7.57;6.80;;;10.80;1.00;;;;;;5110102;27;20616;-76
2024/02/03 09:07:23;;;;;;;8.07;6.40;;;10.80;1.00;;;;;;5106779;27;20969;-75
2024/02/03 09:09:50;;;;;;;7.73;6.93;;;10.80;1.00;;;;;;5086412;28;20513;-76
2024/02/03 09:12:17;;;;;;;9.43;8.50;;;10.80;1.00;;;;;;5088735;28;21106;-75
2024/02/03 09:14:45;;;;;;;9.20;7.13;;;10.70;1.00;;;;;;5093514;27;21068;-76
2024/02/03 09:17:13;;;;;;;6.90;6.20;;;10.70;1.00;;;;;;5089093;28;20478;-76
2024/02/03 09:19:40;;;;;;;7.13;5.90;;;10.70;1.00;;;;;;5075159;28;20456;-76
2024/02/03 09:22:07;;;;;;;6.77;5.80;;;10.70;1.00;;;;;;5089163;28;20565;-75
2024/02/03 09:24:33;;;;;;;8.20;5.80;;;10.70;1.00;;;;;;5092414;28;20628;-75
2024/02/03 09:27:01;;;;;;;7.43;6.73;;;10.80;1.00;;;;;;5086225;28;20551;-76
2024/02/03 09:29:27;;;;;;;7.60;6.80;;;10.80;1.00;;;;;;5088059;28;20550;-76
2024/02/03 09:31:56;;;;;;;7.27;6.10;;;10.80;1.00;;;;;;5079848;28;20544;-75
2024/02/03 09:34:23;;;;;;;6.40;5.80;;;10.80;1.00;;;;;;5092155;28;20551;-76
2024/02/03 09:36:50;;;;;;;6.00;5.40;;;10.80;1.00;;;;;;5090546;28;20539;-75
2024/02/03 09:39:17;;;;;;;6.80;6.10;;;10.80;1.00;;;;;;5085732;28;20466;-76
2024/02/03 09:41:44;;;;;;;6.77;5.60;;;10.80;1.00;;;;;;5092186;28;20518;-75
2024/02/03 09:44:12;;;;;;;6.63;6.00;;;10.80;1.00;;;;;;5093138;28;20521;-77
2024/02/03 09:46:40;;;;;;;7.17;6.47;;;10.70;1.00;;;;;;5091208;28;20466;-75
2024/02/03 09:49:09;;;;;;;7.67;5.50;;;10.80;1.00;;;;;;5081572;28;20525;-77
2024/02/03 09:51:36;;;;;;;6.23;5.47;;;10.80;1.00;;;;;;5094219;28;20801;-74
2024/02/03 09:54:04;;;;;;;6.10;5.50;;;10.80;1.00;;;;;;5089668;27;20454;-76
2024/02/03 09:56:31;;;;;;;6.67;5.30;;;10.80;1.00;;;;;;5091906;28;20443;-76
2024/02/03 09:58:58;;;;;;;5.60;4.73;;;10.80;1.00;;;;;;5087912;27;20450;-75
2024/02/03 10:01:25;;;;;;;5.07;4.60;;;10.90;1.00;;;;;;5091629;28;20474;-75
2024/02/03 10:04:00;;;;;;;5.83;5.33;;;10.90;1.00;;;;;;5091987;28;20551;-74
2024/02/03 10:06:30;;;;;;;6.10;5.50;;;11.00;1.00;;;;;;5086784;28;20496;-74
2024/02/03 10:08:57;;;;;;;5.30;4.80;;;11.00;1.00;;;;;;5087138;28;20496;-75
2024/02/03 10:11:24;;;;;;;5.60;4.90;;;11.00;1.00;;;;;;5091314;28;20476;-75
2024/02/03 10:14:01;;;;;;;5.40;4.90;;;11.10;1.00;;;;;;5090874;28;20458;-74
2024/02/03 10:16:28;;;;;;;5.00;4.50;;;11.10;1.00;;;;;;5089829;28;20447;-74
2024/02/03 10:18:55;;;;;;;5.00;4.50;;;11.20;1.00;;;;;;5092692;28;20546;-74
2024/02/03 10:21:25;;;;;;;5.30;4.80;;;11.30;1.00;;;;;;5094647;27;20475;-76
2024/02/03 10:23:53;;;;;;;4.50;4.07;;;11.30;1.00;;;;;;5085746;28;20476;-75
2024/02/03 10:26:20;;;;;;;5.50;4.93;;;11.40;1.00;;;;;;5095092;28;20514;-74
2024/02/03 10:28:47;;;;;;;5.43;4.93;;;11.50;1.00;;;;;;5094297;28;20467;-76
2024/02/03 10:31:16;;;;;;;4.50;4.10;;;11.60;1.00;;;;;;5091072;28;20537;-75
2024/02/03 10:33:45;;;;;;;5.30;4.80;;;11.70;1.00;;;;;;5091940;27;20915;-76
2024/02/03 10:36:13;;;;;;;4.90;3.80;;;11.80;1.00;;;;;;5090861;27;20478;-77
2024/02/03 10:38:41;;;;;;;7.17;4.87;;;11.80;1.00;;;;;;5093324;28;20458;-75
2024/02/03 10:41:11;;;;;;;5.87;5.27;;;11.80;1.00;;;;;;5087565;28;20473;-76
2024/02/03 10:43:39;;;;;;;6.13;5.53;;;11.70;1.00;;;;;;5091356;28;20550;-75
2024/02/03 10:46:07;;;;;;;5.43;4.93;;;11.80;1.00;;;;;;5089663;28;21066;-75
2024/02/03 10:48:37;;;;;;;5.90;5.30;;;11.70;1.00;;;;;;5093391;28;21222;-75
2024/02/03 10:51:11;;;;;;;5.70;5.20;;;11.70;1.00;;;;;;5092057;28;20466;-75
2024/02/03 10:53:45;;;;;;;5.60;4.97;;;11.70;1.00;;;;;;5093586;28;20475;-74
2024/02/03 10:56:16;;;;;;;6.07;5.10;;;11.70;1.00;;;;;;5089995;28;21302;-74
2024/02/03 10:58:43;;;;;;;4.43;4.03;;;11.60;1.00;;;;;;5093036;28;21049;-76
2024/02/03 11:01:15;;;;;;;5.03;4.53;;;11.60;1.00;;;;;;5087594;27;20618;-72
2024/02/03 11:03:42;;;;;;;4.60;4.20;;;11.70;1.00;;;;;;5095520;28;20793;-73
2024/02/03 11:06:09;;;;;;;5.40;4.90;;;11.70;1.00;;;;;;5090088;28;20466;-73
2024/02/03 11:08:37;;;;;;;4.40;4.03;;;11.70;1.00;;;;;;5089019;28;20498;-71
2024/02/03 11:11:04;;;;;;;4.60;4.10;;;11.70;1.00;;;;;;5103135;27;20500;-70
2024/02/03 11:13:39;;;;;;;5.23;4.63;;;11.60;1.00;;;;;;5108755;27;20454;-71
2024/02/03 11:16:06;;;;;;;4.60;4.20;;;11.60;1.00;;;;;;5108278;27;20540;-71
2024/02/03 11:18:40;;;;;;;4.50;4.10;;;11.70;1.00;;;;;;5108487;27;20511;-71
2024/02/03 11:21:07;;;;;;;6.40;4.93;;;11.60;1.00;;;;;;5101933;27;20473;-75
2024/02/03 11:23:35;;;;;;;5.27;4.77;;;11.50;1.00;;;;;;5107953;27;20541;-73
2024/02/03 11:26:03;;;;;;;5.00;4.53;;;11.50;1.00;;;;;;5108350;27;20455;-72
2024/02/03 11:28:33;;;;;;;5.00;4.50;;;11.50;1.00;;;;;;5106425;27;20497;-72
2024/02/03 11:31:01;;;;;;;5.23;4.77;;;11.50;1.00;;;;;;5104614;27;20557;-72
2024/02/03 11:33:29;;;;;;;5.10;4.60;;;11.60;1.00;;;;;;5110873;27;20462;-73
2024/02/03 11:36:00;;;;;;;5.33;4.67;;;11.70;1.00;;;;;;5104335;27;20454;-71
2024/02/03 11:38:27;;;;;;;4.93;4.23;;;11.80;1.00;;;;;;5110772;27;21011;-71
2024/02/03 11:40:58;;;;;;;4.90;4.43;;;11.80;1.00;;;;;;5105148;27;20541;-73
2024/02/03 11:43:28;;;;;;;4.93;4.43;;;11.80;1.00;;;;;;5108412;27;20533;-73
2024/02/03 11:46:05;;;;;;;4.77;4.27;;;11.80;1.00;;;;;;5103511;27;20989;-72
2024/02/03 11:48:32;;;;;;;5.03;4.57;;;11.80;1.00;;;;;;5101010;27;20512;-71
2024/02/03 11:50:59;;;;;;;5.30;4.80;;;11.70;1.00;;;;;;5107379;27;20566;-72
2024/02/03 11:53:27;;;;;;;5.10;4.60;;;11.70;1.00;;;;;;5110506;27;20459;-72
2024/02/03 11:55:56;;;;;;;5.80;5.20;;;11.50;1.00;;;;;;5106401;27;20471;-72
2024/02/03 11:58:23;;;;;;;4.60;4.10;;;11.40;1.00;;;;;;5104034;27;20454;-70
2024/02/03 12:01:03;;;;;;;4.27;3.87;;;11.30;1.00;;;;;;5107454;27;20559;-72
2024/02/03 12:03:31;;;;;;;5.10;4.27;;;11.30;1.00;;;;;;5107198;27;20458;-71
2024/02/03 12:05:58;;;;;;;6.73;5.30;;;11.20;1.00;;;;;;5105455;27;20450;-73
2024/02/03 12:08:25;;;;;;;4.90;4.40;;;11.20;1.00;;;;;;5090624;27;20476;-70
2024/02/03 12:10:52;;;;;;;5.23;4.63;;;11.10;1.00;;;;;;5103383;27;21047;-74
2024/02/03 12:13:19;;;;;;;5.97;5.13;;;11.10;1.00;;;;;;5112567;27;20483;-75
2024/02/03 12:15:46;;;;;;;5.83;5.23;;;11.10;1.00;;;;;;5113383;27;20453;-73
2024/02/03 12:18:17;;;;;;;5.17;4.77;;;11.10;1.00;;;;;;5109696;27;20482;-73
2024/02/03 12:20:45;;;;;;;6.30;5.50;;;11.10;1.00;;;;;;5107092;27;20481;-74
2024/02/03 12:23:13;;;;;;;5.87;4.97;;;11.10;1.00;;;;;;5108972;27;20498;-74
2024/02/03 12:25:40;;;;;;;5.67;5.13;;;11.00;1.00;;;;;;5109649;27;20660;-73
2024/02/03 12:28:07;;;;;;;5.70;5.20;;;11.00;1.00;;;;;;5110550;27;20477;-75
2024/02/03 12:30:36;;;;;;;8.30;6.40;;;11.00;1.00;;;;;;5107067;27;21331;-74
2024/02/03 12:33:04;;;;;;;5.83;5.33;;;11.00;1.00;;;;;;5105919;27;20581;-74
2024/02/03 12:35:32;;;;;;;5.90;5.40;;;11.00;1.00;;;;;;5108664;27;21822;-74
2024/02/03 12:37:59;;;;;;;6.73;5.57;;;11.00;1.00;;;;;;5106677;27;21023;-74
2024/02/03 12:40:30;;;;;;;8.80;6.17;;;11.10;1.00;;;;;;5106345;27;20497;-73
2024/02/03 12:42:57;;;;;;;5.80;5.30;;;11.10;1.00;;;;;;5106932;27;20460;-74
2024/02/03 12:45:25;;;;;;;5.27;4.80;;;11.20;1.00;;;;;;5109618;27;20466;-75
2024/02/03 12:47:54;;;;;;;5.80;5.03;;;11.30;1.00;;;;;;5105951;27;20528;-75
2024/02/03 12:50:21;;;;;;;6.33;5.00;;;11.30;1.00;;;;;;5111649;27;20545;-74
2024/02/03 12:52:50;;;;;;;5.93;5.33;;;11.30;1.00;;;;;;5106708;27;20451;-74
2024/02/03 12:55:18;;;;;;;5.67;5.17;;;11.30;1.00;;;;;;5107918;27;20462;-73
2024/02/03 12:57:45;;;;;;;6.10;5.57;;;11.40;1.00;;;;;;5109422;27;21234;-74